sensor_id;sensor_type;location;lat;lon;timestamp;pressure;altitude;pressure_sealevel;temperature;humidity
68489;BME280;55481;48.764;8.936;2023-03-14T00:02:31;95410;;;9.1;71
68489;BME280;55481;48.764;8.936;2023-03-14T00:05:03;95380;;;9;71.5
68489;BME280;55481;48.764;8.936;2023-03-14T00:07:34;95400;;;9;71.5
68489;BME280;55481;48.764;8.936;2023-03-14T00:10:06;95410;;;9.1;71.5
68489;BME280;55481;48.764;8.936;2023-03-14T00:12:35;95400;;;9;71.5
68489;BME280;55481;48.764;8.936;2023-03-14T00:17:36;95390;;;9.1;71.5
68489;BME280;55481;48.764;8.936;2023-03-14T00:20:07;95400;;;9.1;71.5
68489;BME280;55481;48.764;8.936;2023-03-14T00:22:38;95390;;;9;71.5
68489;BME280;55481;48.764;8.936;2023-03-14T00:25:15;95390;;;9;72
68489;BME280;55481;48.764;8.936;2023-03-14T00:27:46;95380;;;9.1;71.5
68489;BME280;55481;48.764;8.936;2023-03-14T00:30:24;95390;;;9.1;72
68489;BME280;55481;48.764;8.936;2023-03-14T00:35:19;95400;;;9;72
68489;BME280;55481;48.764;8.936;2023-03-14T00:40:26;95390;;;9.1;72
68489;BME280;55481;48.764;8.936;2023-03-14T00:42:57;95390;;;9;72.5
68489;BME280;55481;48.764;8.936;2023-03-14T00:47:51;95390;;;9.2;72
68489;BME280;55481;48.764;8.936;2023-03-14T00:50:21;95400;;;9.2;72
68489;BME280;55481;48.764;8.936;2023-03-14T00:52:53;95390;;;9.2;72
68489;BME280;55481;48.764;8.936;2023-03-14T00:55:24;95410;;;9.2;72
68489;BME280;55481;48.764;8.936;2023-03-14T01:00:38;95420;;;9.2;72.5
68489;BME280;55481;48.764;8.936;2023-03-14T01:03:10;95420;;;9.2;72.5
68489;BME280;55481;48.764;8.936;2023-03-14T01:08:02;95410;;;9.2;72.5
68489;BME280;55481;48.764;8.936;2023-03-14T01:10:33;95400;;;9.2;72.5
68489;BME280;55481;48.764;8.936;2023-03-14T01:13:03;95400;;;9.2;72.5
68489;BME280;55481;48.764;8.936;2023-03-14T01:15:33;95400;;;9.2;72.5
68489;BME280;55481;48.764;8.936;2023-03-14T01:17:57;95390;;;9.2;72.5
68489;BME280;55481;48.764;8.936;2023-03-14T01:20:28;95380;;;9.3;72.5
68489;BME280;55481;48.764;8.936;2023-03-14T01:23:06;95380;;;9.3;72.5
68489;BME280;55481;48.764;8.936;2023-03-14T01:30:39;95360;;;9.3;72.5
68489;BME280;55481;48.764;8.936;2023-03-14T01:33:08;95340;;;9.3;72.5
68489;BME280;55481;48.764;8.936;2023-03-14T01:40:33;95300;;;9.2;73
68489;BME280;55481;48.764;8.936;2023-03-14T01:43:06;95300;;;9.2;73
68489;BME280;55481;48.764;8.936;2023-03-14T01:46:24;95300;;;9.2;73
68489;BME280;55481;48.764;8.936;2023-03-14T01:48:12;95310;;;9.2;73
68489;BME280;55481;48.764;8.936;2023-03-14T01:50:43;95310;;;9.2;73
68489;BME280;55481;48.764;8.936;2023-03-14T01:55:39;95300;;;9.2;73
68489;BME280;55481;48.764;8.936;2023-03-14T01:58:09;95300;;;9.1;73.5
68489;BME280;55481;48.764;8.936;2023-03-14T02:03:18;95320;;;9.1;73.5
68489;BME280;55481;48.764;8.936;2023-03-14T02:05:47;95310;;;9.1;73.5
68489;BME280;55481;48.764;8.936;2023-03-14T02:08:13;95320;;;9.1;73.5
68489;BME280;55481;48.764;8.936;2023-03-14T02:10:43;95310;;;9.2;73.5
68489;BME280;55481;48.764;8.936;2023-03-14T02:13:20;95310;;;9.1;73.5
68489;BME280;55481;48.764;8.936;2023-03-14T02:18:09;95320;;;9.1;73.5
68489;BME280;55481;48.764;8.936;2023-03-14T02:20:44;95310;;;9.1;73.5
68489;BME280;55481;48.764;8.936;2023-03-14T02:23:11;95300;;;9.2;73.5
68489;BME280;55481;48.764;8.936;2023-03-14T02:25:51;95290;;;9.1;73.5
68489;BME280;55481;48.764;8.936;2023-03-14T02:28:12;95290;;;9.1;73.5
68489;BME280;55481;48.764;8.936;2023-03-14T02:30:43;95290;;;9.1;73.5
68489;BME280;55481;48.764;8.936;2023-03-14T02:33:14;95300;;;9;74
68489;BME280;55481;48.764;8.936;2023-03-14T02:35:48;95290;;;9;74
68489;BME280;55481;48.764;8.936;2023-03-14T02:45:48;95270;;;8.9;74
68489;BME280;55481;48.764;8.936;2023-03-14T02:48:19;95290;;;8.8;74
68489;BME280;55481;48.764;8.936;2023-03-14T02:53:33;95270;;;8.9;74
68489;BME280;55481;48.764;8.936;2023-03-14T02:56:02;95270;;;8.9;74
68489;BME280;55481;48.764;8.936;2023-03-14T02:58:33;95250;;;8.9;74
68489;BME280;55481;48.764;8.936;2023-03-14T03:03:27;95250;;;8.9;74
68489;BME280;55481;48.764;8.936;2023-03-14T03:05:58;95250;;;8.9;74
68489;BME280;55481;48.764;8.936;2023-03-14T03:08:29;95240;;;8.9;74
68489;BME280;55481;48.764;8.936;2023-03-14T03:11:06;95230;;;8.8;74
68489;BME280;55481;48.764;8.936;2023-03-14T03:16:21;95220;;;8.7;74.5
68489;BME280;55481;48.764;8.936;2023-03-14T03:18:38;95210;;;8.8;74
68489;BME280;55481;48.764;8.936;2023-03-14T03:23:31;95210;;;8.8;74
68489;BME280;55481;48.764;8.936;2023-03-14T03:26:02;95220;;;8.7;74.5
68489;BME280;55481;48.764;8.936;2023-03-14T03:28:34;95220;;;8.7;74.5
68489;BME280;55481;48.764;8.936;2023-03-14T03:30:57;95210;;;8.7;74.5
68489;BME280;55481;48.764;8.936;2023-03-14T03:38:29;95190;;;8.6;74.5
68489;BME280;55481;48.764;8.936;2023-03-14T03:41:02;95190;;;8.6;74.5
68489;BME280;55481;48.764;8.936;2023-03-14T03:43:31;95180;;;8.6;74.5
68489;BME280;55481;48.764;8.936;2023-03-14T03:46:03;95180;;;8.6;74.5
68489;BME280;55481;48.764;8.936;2023-03-14T03:51:12;95180;;;8.5;74.5
68489;BME280;55481;48.764;8.936;2023-03-14T03:53:41;95180;;;8.5;74.5
68489;BME280;55481;48.764;8.936;2023-03-14T03:58:35;95180;;;8.4;74.5
68489;BME280;55481;48.764;8.936;2023-03-14T04:08:38;95160;;;8.4;74.5
68489;BME280;55481;48.764;8.936;2023-03-14T04:11:10;95160;;;8.4;74.5
68489;BME280;55481;48.764;8.936;2023-03-14T04:13:40;95160;;;8.5;74.5
68489;BME280;55481;48.764;8.936;2023-03-14T04:16:14;95160;;;8.4;74.5
68489;BME280;55481;48.764;8.936;2023-03-14T04:21:25;95150;;;8.3;75
68489;BME280;55481;48.764;8.936;2023-03-14T04:23:56;95160;;;8.3;75
68489;BME280;55481;48.764;8.936;2023-03-14T04:26:19;95160;;;8.2;75
68489;BME280;55481;48.764;8.936;2023-03-14T04:28:50;95150;;;8.3;75
68489;BME280;55481;48.764;8.936;2023-03-14T04:31:22;95140;;;8.3;75
68489;BME280;55481;48.764;8.936;2023-03-14T04:33:59;95150;;;8.3;75
68489;BME280;55481;48.764;8.936;2023-03-14T04:36:30;95150;;;8.3;75
68489;BME280;55481;48.764;8.936;2023-03-14T04:44:03;95120;;;8.2;75.5
68489;BME280;55481;48.764;8.936;2023-03-14T04:46:33;95120;;;8.2;75
68489;BME280;55481;48.764;8.936;2023-03-14T04:51:27;95130;;;8.1;75.5
68489;BME280;55481;48.764;8.936;2023-03-14T04:53:57;95120;;;8.2;75.5
68489;BME280;55481;48.764;8.936;2023-03-14T04:56:29;95110;;;8.2;75
68489;BME280;55481;48.764;8.936;2023-03-14T05:03:54;95110;;;8.1;75.5
68489;BME280;55481;48.764;8.936;2023-03-14T05:06:25;95100;;;8.1;75.5
68489;BME280;55481;48.764;8.936;2023-03-14T05:08:56;95100;;;8.1;75
68489;BME280;55481;48.764;8.936;2023-03-14T05:11:26;95100;;;8.1;75.5
68489;BME280;55481;48.764;8.936;2023-03-14T05:13:57;95110;;;8.1;75
68489;BME280;55481;48.764;8.936;2023-03-14T05:16:28;95100;;;8.1;75.5
68489;BME280;55481;48.764;8.936;2023-03-14T05:18:59;95090;;;8.2;75
68489;BME280;55481;48.764;8.936;2023-03-14T05:21:29;95080;;;8.2;75.5
68489;BME280;55481;48.764;8.936;2023-03-14T05:24:01;95080;;;8.2;75
68489;BME280;55481;48.764;8.936;2023-03-14T05:34:04;95090;;;8.2;75
68489;BME280;55481;48.764;8.936;2023-03-14T05:41:43;95090;;;8.3;75.5
68489;BME280;55481;48.764;8.936;2023-03-14T05:44:13;95080;;;8.5;75
68489;BME280;55481;48.764;8.936;2023-03-14T05:46:43;95070;;;8.4;75
68489;BME280;55481;48.764;8.936;2023-03-14T05:54:09;95090;;;8.4;75
68489;BME280;55481;48.764;8.936;2023-03-14T06:01:41;95080;;;8.3;75
68489;BME280;55481;48.764;8.936;2023-03-14T06:04:12;95070;;;8.3;75.5
68489;BME280;55481;48.764;8.936;2023-03-14T06:06:56;95070;;;8.1;76
68489;BME280;55481;48.764;8.936;2023-03-14T06:11:50;95070;;;8.1;75.5
68489;BME280;55481;48.764;8.936;2023-03-14T06:14:24;95060;;;8.2;75.5
68489;BME280;55481;48.764;8.936;2023-03-14T06:16:52;95060;;;8.2;75.5
68489;BME280;55481;48.764;8.936;2023-03-14T06:19:16;95060;;;8.2;75.5
68489;BME280;55481;48.764;8.936;2023-03-14T06:21:47;95060;;;8.2;75.5
68489;BME280;55481;48.764;8.936;2023-03-14T06:29:20;95060;;;8.4;75
68489;BME280;55481;48.764;8.936;2023-03-14T06:31:50;95060;;;8.4;75
68489;BME280;55481;48.764;8.936;2023-03-14T06:34:21;95050;;;8.4;75
68489;BME280;55481;48.764;8.936;2023-03-14T06:36:58;95050;;;8.4;75
68489;BME280;55481;48.764;8.936;2023-03-14T06:39:29;95050;;;8.4;75
68489;BME280;55481;48.764;8.936;2023-03-14T06:44:37;95040;;;8.5;75
68489;BME280;55481;48.764;8.936;2023-03-14T06:46:55;95040;;;8.6;75
68489;BME280;55481;48.764;8.936;2023-03-14T06:56:58;95040;;;8.7;74.5
68489;BME280;55481;48.764;8.936;2023-03-14T06:59:29;95040;;;8.9;74.5
68489;BME280;55481;48.764;8.936;2023-03-14T07:02:00;95040;;;9;74.5
68489;BME280;55481;48.764;8.936;2023-03-14T07:04:31;95050;;;9.2;74
68489;BME280;55481;48.764;8.936;2023-03-14T07:07:08;95040;;;9.3;74
68489;BME280;55481;48.764;8.936;2023-03-14T07:09:43;95040;;;9.5;74
68489;BME280;55481;48.764;8.936;2023-03-14T07:12:10;95040;;;9.6;74
68489;BME280;55481;48.764;8.936;2023-03-14T07:14:42;95040;;;9.7;74
68489;BME280;55481;48.764;8.936;2023-03-14T07:24:38;95060;;;10.1;73.5
68489;BME280;55481;48.764;8.936;2023-03-14T07:27:12;95060;;;10.3;73
68489;BME280;55481;48.764;8.936;2023-03-14T07:29:41;95060;;;10.4;73
68489;BME280;55481;48.764;8.936;2023-03-14T07:32:14;95070;;;10.5;73
68489;BME280;55481;48.764;8.936;2023-03-14T07:34:43;95070;;;10.6;73
68489;BME280;55481;48.764;8.936;2023-03-14T07:37:12;95070;;;10.7;73
68489;BME280;55481;48.764;8.936;2023-03-14T07:39:42;95060;;;10.9;73
68489;BME280;55481;48.764;8.936;2023-03-14T07:42:13;95070;;;10.9;73
68489;BME280;55481;48.764;8.936;2023-03-14T07:44:44;95070;;;11.1;72.5
68489;BME280;55481;48.764;8.936;2023-03-14T07:47:15;95070;;;11.3;72.5
68489;BME280;55481;48.764;8.936;2023-03-14T07:49:45;95070;;;11.4;72.5
68489;BME280;55481;48.764;8.936;2023-03-14T07:52:18;95070;;;11.5;72.5
68489;BME280;55481;48.764;8.936;2023-03-14T08:25:02;95090;;;10.6;75.5
68489;BME280;55481;48.764;8.936;2023-03-14T08:27:25;95090;;;10.5;75.5
68489;BME280;55481;48.764;8.936;2023-03-14T08:35:02;95090;;;11.9;72
68489;BME280;55481;48.764;8.936;2023-03-14T08:37:30;95090;;;12.1;72
68489;BME280;55481;48.764;8.936;2023-03-14T08:39:59;95090;;;12.3;71.5
68489;BME280;55481;48.764;8.936;2023-03-14T08:45:08;95090;;;12;72.5
68489;BME280;55481;48.764;8.936;2023-03-14T08:47:38;95100;;;11.6;74
68489;BME280;55481;48.764;8.936;2023-03-14T08:50:10;95100;;;11.4;74.5
68489;BME280;55481;48.764;8.936;2023-03-14T08:52:40;95100;;;11.2;75
68489;BME280;55481;48.764;8.936;2023-03-14T08:55:04;95100;;;11.1;75
68489;BME280;55481;48.764;8.936;2023-03-14T09:02:36;95100;;;10.8;75.5
68489;BME280;55481;48.764;8.936;2023-03-14T09:07:38;95120;;;10.7;75.5
68489;BME280;55481;48.764;8.936;2023-03-14T09:10:09;95120;;;10.6;75.5
68489;BME280;55481;48.764;8.936;2023-03-14T09:12:39;95120;;;10.6;75.5
68489;BME280;55481;48.764;8.936;2023-03-14T09:15:10;95130;;;10.4;75.5
68489;BME280;55481;48.764;8.936;2023-03-14T09:20:17;95130;;;10.3;76
68489;BME280;55481;48.764;8.936;2023-03-14T09:22:48;95130;;;10.4;75.5
68489;BME280;55481;48.764;8.936;2023-03-14T09:25:19;95130;;;10.4;75.5
68489;BME280;55481;48.764;8.936;2023-03-14T09:32:45;95150;;;10.8;74.5
68489;BME280;55481;48.764;8.936;2023-03-14T09:35:16;95150;;;10.9;74.5
68489;BME280;55481;48.764;8.936;2023-03-14T09:37:46;95150;;;11.1;74
68489;BME280;55481;48.764;8.936;2023-03-14T09:40:17;95160;;;10.9;74
68489;BME280;55481;48.764;8.936;2023-03-14T09:42:48;95170;;;10.8;74.5
68489;BME280;55481;48.764;8.936;2023-03-14T09:45:27;95160;;;10.9;74.5
68489;BME280;55481;48.764;8.936;2023-03-14T09:47:49;95170;;;10.9;74.5
68489;BME280;55481;48.764;8.936;2023-03-14T09:50:20;95170;;;11;74.5
68489;BME280;55481;48.764;8.936;2023-03-14T09:52:51;95170;;;11.3;74
68489;BME280;55481;48.764;8.936;2023-03-14T09:55:22;95170;;;11.3;74
68489;BME280;55481;48.764;8.936;2023-03-14T10:03:19;95160;;;11.9;72.5
68489;BME280;55481;48.764;8.936;2023-03-14T10:05:31;95150;;;12;73
68489;BME280;55481;48.764;8.936;2023-03-14T10:08:02;95140;;;12.3;72.5
68489;BME280;55481;48.764;8.936;2023-03-14T10:10:33;95140;;;12.8;71
68489;BME280;55481;48.764;8.936;2023-03-14T10:13:34;95140;;;12.4;72.5
68489;BME280;55481;48.764;8.936;2023-03-14T10:15:34;95140;;;11.9;73.5
68489;BME280;55481;48.764;8.936;2023-03-14T10:18:12;95140;;;11.7;74.5
68489;BME280;55481;48.764;8.936;2023-03-14T10:20:44;95150;;;11.7;75
68489;BME280;55481;48.764;8.936;2023-03-14T10:23:19;95160;;;11.6;75
68489;BME280;55481;48.764;8.936;2023-03-14T10:25:40;95150;;;11.5;75
68489;BME280;55481;48.764;8.936;2023-03-14T10:28:23;95150;;;11.5;75
68489;BME280;55481;48.764;8.936;2023-03-14T10:30:44;95150;;;11.3;75
68489;BME280;55481;48.764;8.936;2023-03-14T10:35:35;95130;;;11.4;75
68489;BME280;55481;48.764;8.936;2023-03-14T10:38:12;95150;;;11;75.5
68489;BME280;55481;48.764;8.936;2023-03-14T10:40:37;95160;;;10.9;75.5
68489;BME280;55481;48.764;8.936;2023-03-14T10:48:17;95170;;;10.3;77
68489;BME280;55481;48.764;8.936;2023-03-14T10:50:47;95170;;;10.1;77
68489;BME280;55481;48.764;8.936;2023-03-14T10:53:11;95180;;;9.7;78
68489;BME280;55481;48.764;8.936;2023-03-14T10:58:19;95190;;;9.7;77.5
68489;BME280;55481;48.764;8.936;2023-03-14T11:00:51;95190;;;9.5;78
68489;BME280;55481;48.764;8.936;2023-03-14T11:03:20;95210;;;9.6;78
68489;BME280;55481;48.764;8.936;2023-03-14T11:05:53;95210;;;9.6;77.5
68489;BME280;55481;48.764;8.936;2023-03-14T11:13:21;95210;;;8.9;78.5
68489;BME280;55481;48.764;8.936;2023-03-14T11:15:50;95210;;;8.9;78.5
68489;BME280;55481;48.764;8.936;2023-03-14T11:18:27;95220;;;8.6;79
68489;BME280;55481;48.764;8.936;2023-03-14T11:20:53;95220;;;8.7;78.5
68489;BME280;55481;48.764;8.936;2023-03-14T11:23:31;95220;;;8.8;78.5
68489;BME280;55481;48.764;8.936;2023-03-14T11:26:17;95220;;;8.9;78
68489;BME280;55481;48.764;8.936;2023-03-14T11:28:33;95230;;;9;77.5
68489;BME280;55481;48.764;8.936;2023-03-14T11:30:54;95230;;;9.2;77
68489;BME280;55481;48.764;8.936;2023-03-14T11:33:25;95230;;;9.4;77
68489;BME280;55481;48.764;8.936;2023-03-14T11:40:56;95230;;;9.2;77
68489;BME280;55481;48.764;8.936;2023-03-14T11:43:34;95230;;;8.9;77.5
68489;BME280;55481;48.764;8.936;2023-03-14T11:46:01;95230;;;8.8;78.5
68489;BME280;55481;48.764;8.936;2023-03-14T11:48:39;95230;;;9.2;77.5
68489;BME280;55481;48.764;8.936;2023-03-14T11:51:11;95240;;;9.6;76.5
68489;BME280;55481;48.764;8.936;2023-03-14T11:53:40;95240;;;9.8;76
68489;BME280;55481;48.764;8.936;2023-03-14T11:56:00;95250;;;9.6;76.5
68489;BME280;55481;48.764;8.936;2023-03-14T11:58:31;95250;;;9.4;77
68489;BME280;55481;48.764;8.936;2023-03-14T12:08:38;95280;;;9;77.5
68489;BME280;55481;48.764;8.936;2023-03-14T12:12:10;95300;;;9.3;77.5
68489;BME280;55481;48.764;8.936;2023-03-14T12:13:36;95290;;;10.9;74
68489;BME280;55481;48.764;8.936;2023-03-14T12:16:30;95310;;;10.6;74
68489;BME280;55481;48.764;8.936;2023-03-14T12:18:51;95320;;;9.9;75.5
68489;BME280;55481;48.764;8.936;2023-03-14T12:21:13;95330;;;9.6;77
68489;BME280;55481;48.764;8.936;2023-03-14T12:23:44;95350;;;9.5;77
68489;BME280;55481;48.764;8.936;2023-03-14T12:26:16;95350;;;9.5;77
68489;BME280;55481;48.764;8.936;2023-03-14T12:28:50;95350;;;9.8;76
68489;BME280;55481;48.764;8.936;2023-03-14T12:31:35;95360;;;11.3;73.5
68489;BME280;55481;48.764;8.936;2023-03-14T12:36:31;95350;;;13.6;69.5
68489;BME280;55481;48.764;8.936;2023-03-14T12:38:52;95350;;;13.7;70
68489;BME280;55481;48.764;8.936;2023-03-14T12:41:23;95350;;;13.5;71
68489;BME280;55481;48.764;8.936;2023-03-14T12:43:52;95360;;;13;73
68489;BME280;55481;48.764;8.936;2023-03-14T12:46:24;95360;;;13;73
68489;BME280;55481;48.764;8.936;2023-03-14T12:48:54;95390;;;13.2;73.5
68489;BME280;55481;48.764;8.936;2023-03-14T12:54:00;95390;;;13;74
68489;BME280;55481;48.764;8.936;2023-03-14T12:56:31;95410;;;13.1;74
68489;BME280;55481;48.764;8.936;2023-03-14T12:59:02;95410;;;12.7;75
68489;BME280;55481;48.764;8.936;2023-03-14T13:01:35;95410;;;12.6;75.5
68489;BME280;55481;48.764;8.936;2023-03-14T13:04:11;95430;;;12.3;76
68489;BME280;55481;48.764;8.936;2023-03-14T13:06:49;95430;;;12;76.5
68489;BME280;55481;48.764;8.936;2023-03-14T13:11:29;95440;;;13.1;75
68489;BME280;55481;48.764;8.936;2023-03-14T13:14:00;95450;;;13.5;73.5
68489;BME280;55481;48.764;8.936;2023-03-14T13:16:31;95460;;;12.7;75.5
68489;BME280;55481;48.764;8.936;2023-03-14T13:21:25;95490;;;10.8;80.5
68489;BME280;55481;48.764;8.936;2023-03-14T13:31:28;95540;;;8.6;82.5
68489;BME280;55481;48.764;8.936;2023-03-14T13:34:00;95540;;;8.7;82.5
68489;BME280;55481;48.764;8.936;2023-03-14T13:36:30;95560;;;8.6;81.5
68489;BME280;55481;48.764;8.936;2023-03-14T13:39:01;95570;;;8.8;81
68489;BME280;55481;48.764;8.936;2023-03-14T13:41:38;95600;;;9.5;79.5
68489;BME280;55481;48.764;8.936;2023-03-14T13:44:17;95610;;;9.3;79.5
68489;BME280;55481;48.764;8.936;2023-03-14T13:46:40;95610;;;9.2;79.5
68489;BME280;55481;48.764;8.936;2023-03-14T13:49:05;95640;;;9.1;79.5
68489;BME280;55481;48.764;8.936;2023-03-14T13:59:38;95660;;;8.8;79.5
68489;BME280;55481;48.764;8.936;2023-03-14T14:01:37;95670;;;8.7;79.5
68489;BME280;55481;48.764;8.936;2023-03-14T14:04:13;95680;;;8.6;79.5
68489;BME280;55481;48.764;8.936;2023-03-14T14:06:44;95690;;;8.4;79.5
68489;BME280;55481;48.764;8.936;2023-03-14T14:09:12;95710;;;8.5;79.5
68489;BME280;55481;48.764;8.936;2023-03-14T14:14:20;95720;;;8.3;79.5
68489;BME280;55481;48.764;8.936;2023-03-14T14:16:48;95720;;;8.3;79.5
68489;BME280;55481;48.764;8.936;2023-03-14T14:19:20;95720;;;8.4;79
68489;BME280;55481;48.764;8.936;2023-03-14T14:24:22;95730;;;8.2;79
68489;BME280;55481;48.764;8.936;2023-03-14T14:29:30;95720;;;8.1;79
68489;BME280;55481;48.764;8.936;2023-03-14T14:32:01;95750;;;8.5;79
68489;BME280;55481;48.764;8.936;2023-03-14T14:34:23;95740;;;8.4;78
68489;BME280;55481;48.764;8.936;2023-03-14T14:36:54;95730;;;8.3;78.5
68489;BME280;55481;48.764;8.936;2023-03-14T14:39:25;95730;;;8.2;78.5
68489;BME280;55481;48.764;8.936;2023-03-14T15:27:14;95810;;;9.3;76
68489;BME280;55481;48.764;8.936;2023-03-14T15:29:45;95810;;;8.8;77
68489;BME280;55481;48.764;8.936;2023-03-14T15:32:16;95820;;;8.4;78
68489;BME280;55481;48.764;8.936;2023-03-14T15:34:47;95820;;;10.4;75
68489;BME280;55481;48.764;8.936;2023-03-14T15:37:20;95820;;;10.4;73.5
68489;BME280;55481;48.764;8.936;2023-03-14T15:39:49;95830;;;9;77
68489;BME280;55481;48.764;8.936;2023-03-14T15:42:20;95840;;;8.3;78.5
68489;BME280;55481;48.764;8.936;2023-03-14T15:44:52;95840;;;8.2;79
68489;BME280;55481;48.764;8.936;2023-03-14T15:47:28;95840;;;8.1;79
68489;BME280;55481;48.764;8.936;2023-03-14T15:49:59;95840;;;8.7;77
68489;BME280;55481;48.764;8.936;2023-03-14T15:54:55;95850;;;7.9;78.5
68489;BME280;55481;48.764;8.936;2023-03-14T15:57:25;95860;;;7.9;78.5
68489;BME280;55481;48.764;8.936;2023-03-14T15:59:57;95870;;;7.8;78
68489;BME280;55481;48.764;8.936;2023-03-14T16:02:27;95870;;;7.7;78.5
68489;BME280;55481;48.764;8.936;2023-03-14T16:04:58;95870;;;7.8;78
68489;BME280;55481;48.764;8.936;2023-03-14T16:07:30;95870;;;8.5;76.5
68489;BME280;55481;48.764;8.936;2023-03-14T16:10:00;95870;;;8.7;75.5
68489;BME280;55481;48.764;8.936;2023-03-14T16:15:09;95880;;;8.4;76.5
68489;BME280;55481;48.764;8.936;2023-03-14T16:17:34;95870;;;8.3;76.5
68489;BME280;55481;48.764;8.936;2023-03-14T16:20:04;95870;;;8.2;77
68489;BME280;55481;48.764;8.936;2023-03-14T16:22:35;95870;;;8.1;77
68489;BME280;55481;48.764;8.936;2023-03-14T16:25:14;95880;;;7.9;77.5
68489;BME280;55481;48.764;8.936;2023-03-14T16:30:09;95880;;;7.7;78
68489;BME280;55481;48.764;8.936;2023-03-14T16:32:40;95890;;;7.6;78
68489;BME280;55481;48.764;8.936;2023-03-14T16:35:10;95890;;;7.6;78
68489;BME280;55481;48.764;8.936;2023-03-14T16:37:42;95900;;;7.6;78
68489;BME280;55481;48.764;8.936;2023-03-14T16:40:12;95900;;;7.6;77.5
68489;BME280;55481;48.764;8.936;2023-03-14T16:42:43;95900;;;7.6;77.5
68489;BME280;55481;48.764;8.936;2023-03-14T16:45:15;95910;;;7.7;77.5
68489;BME280;55481;48.764;8.936;2023-03-14T16:47:45;95920;;;7.7;77
68489;BME280;55481;48.764;8.936;2023-03-14T16:50:22;95920;;;7.6;77.5
68489;BME280;55481;48.764;8.936;2023-03-14T16:52:54;95920;;;7.6;77.5
68489;BME280;55481;48.764;8.936;2023-03-14T16:58:09;95920;;;7.6;77.5
68489;BME280;55481;48.764;8.936;2023-03-14T17:00:25;95930;;;7.6;77.5
68489;BME280;55481;48.764;8.936;2023-03-14T17:05:19;95930;;;7.6;77.5
68489;BME280;55481;48.764;8.936;2023-03-14T17:07:50;95940;;;7.5;77.5
68489;BME280;55481;48.764;8.936;2023-03-14T17:10:21;95960;;;7.5;77
68489;BME280;55481;48.764;8.936;2023-03-14T17:20:18;96010;;;6.1;78.5
68489;BME280;55481;48.764;8.936;2023-03-14T17:22:49;96020;;;5.6;79.5
68489;BME280;55481;48.764;8.936;2023-03-14T17:25:22;96020;;;5.4;79.5
68489;BME280;55481;48.764;8.936;2023-03-14T17:27:50;96020;;;5.2;79.5
68489;BME280;55481;48.764;8.936;2023-03-14T17:30:27;96030;;;5.1;80
68489;BME280;55481;48.764;8.936;2023-03-14T17:33:00;96030;;;5.2;79.5
68489;BME280;55481;48.764;8.936;2023-03-14T17:35:30;96040;;;5.2;79
68489;BME280;55481;48.764;8.936;2023-03-14T17:38:01;96040;;;5.2;79
68489;BME280;55481;48.764;8.936;2023-03-14T17:45:27;96080;;;5.1;79
68489;BME280;55481;48.764;8.936;2023-03-14T17:47:57;96080;;;5.1;79
68489;BME280;55481;48.764;8.936;2023-03-14T17:50:28;96080;;;5.1;79
68489;BME280;55481;48.764;8.936;2023-03-14T17:52:59;96090;;;5.2;79
68489;BME280;55481;48.764;8.936;2023-03-14T17:55:30;96100;;;5.1;79
68489;BME280;55481;48.764;8.936;2023-03-14T17:58:11;96110;;;4.8;79
68489;BME280;55481;48.764;8.936;2023-03-14T18:00:38;96120;;;4.2;80
68489;BME280;55481;48.764;8.936;2023-03-14T18:03:09;96120;;;4;81
68489;BME280;55481;48.764;8.936;2023-03-14T18:05:40;96100;;;3.9;81
68489;BME280;55481;48.764;8.936;2023-03-14T18:13:05;96120;;;3.8;81
68489;BME280;55481;48.764;8.936;2023-03-14T18:15:36;96120;;;4;80.5
68489;BME280;55481;48.764;8.936;2023-03-14T18:18:07;96120;;;4;80
68489;BME280;55481;48.764;8.936;2023-03-14T18:20:38;96120;;;4.1;80.5
68489;BME280;55481;48.764;8.936;2023-03-14T18:25:45;96130;;;4.1;80
68489;BME280;55481;48.764;8.936;2023-03-14T18:28:16;96140;;;4;80
68489;BME280;55481;48.764;8.936;2023-03-14T18:30:48;96140;;;4;80
68489;BME280;55481;48.764;8.936;2023-03-14T18:33:19;96150;;;4;80
68489;BME280;55481;48.764;8.936;2023-03-14T18:35:48;96150;;;4;80
68489;BME280;55481;48.764;8.936;2023-03-14T18:38:20;96140;;;4.1;80
68489;BME280;55481;48.764;8.936;2023-03-14T18:43:14;96150;;;4.2;79.5
68489;BME280;55481;48.764;8.936;2023-03-14T18:45:45;96150;;;4.2;79.5
68489;BME280;55481;48.764;8.936;2023-03-14T18:48:16;96150;;;4.2;79.5
68489;BME280;55481;48.764;8.936;2023-03-14T18:50:47;96160;;;4.2;79.5
68489;BME280;55481;48.764;8.936;2023-03-14T18:53:17;96160;;;4.2;79.5
68489;BME280;55481;48.764;8.936;2023-03-14T18:55:48;96150;;;4.3;79.5
68489;BME280;55481;48.764;8.936;2023-03-14T18:58:19;96170;;;4.3;79.5
68489;BME280;55481;48.764;8.936;2023-03-14T19:01:05;96170;;;4.3;79.5
68489;BME280;55481;48.764;8.936;2023-03-14T19:03:33;96170;;;4.4;79.5
68489;BME280;55481;48.764;8.936;2023-03-14T19:10:58;96170;;;4.5;79
68489;BME280;55481;48.764;8.936;2023-03-14T19:13:30;96170;;;4.5;79
68489;BME280;55481;48.764;8.936;2023-03-14T19:16:00;96170;;;4.5;79
68489;BME280;55481;48.764;8.936;2023-03-14T19:18:31;96170;;;4.4;79
68489;BME280;55481;48.764;8.936;2023-03-14T19:21:04;96170;;;4.4;79
68489;BME280;55481;48.764;8.936;2023-03-14T19:23:33;96180;;;4.4;79
68489;BME280;55481;48.764;8.936;2023-03-14T19:26:05;96170;;;4.4;79
68489;BME280;55481;48.764;8.936;2023-03-14T19:28:35;96180;;;4.4;79
68489;BME280;55481;48.764;8.936;2023-03-14T19:36:08;96180;;;4.4;79
68489;BME280;55481;48.764;8.936;2023-03-14T19:38:40;96190;;;4.5;79
68489;BME280;55481;48.764;8.936;2023-03-14T19:41:09;96190;;;4.6;78.5
68489;BME280;55481;48.764;8.936;2023-03-14T19:43:42;96190;;;4.5;78.5
68489;BME280;55481;48.764;8.936;2023-03-14T19:46:11;96200;;;4.5;78.5
68489;BME280;55481;48.764;8.936;2023-03-14T19:48:42;96200;;;4.5;78.5
68489;BME280;55481;48.764;8.936;2023-03-14T19:51:13;96200;;;4.5;78.5
68489;BME280;55481;48.764;8.936;2023-03-14T19:53:44;96210;;;4.6;78.5
68489;BME280;55481;48.764;8.936;2023-03-14T19:56:21;96210;;;4.5;78.5
68489;BME280;55481;48.764;8.936;2023-03-14T20:01:30;96220;;;4.5;79
68489;BME280;55481;48.764;8.936;2023-03-14T20:06:23;96220;;;4.6;78.5
68489;BME280;55481;48.764;8.936;2023-03-14T20:08:53;96220;;;4.6;78.5
68489;BME280;55481;48.764;8.936;2023-03-14T20:11:23;96220;;;4.6;79
68489;BME280;55481;48.764;8.936;2023-03-14T20:13:53;96220;;;4.7;79
68489;BME280;55481;48.764;8.936;2023-03-14T20:16:30;96230;;;4.7;78.5
68489;BME280;55481;48.764;8.936;2023-03-14T20:19:07;96220;;;4.8;78.5
68489;BME280;55481;48.764;8.936;2023-03-14T20:23:47;96230;;;4.9;78.5
68489;BME280;55481;48.764;8.936;2023-03-14T20:26:18;96230;;;5;78